sensor_id;sensor_type;location;lat;lon;timestamp;P1;durP1;ratioP1;P2;durP2;ratioP2
50605;SDS011;36557;53.572;10.170;2022-11-15T00:00:33;27.13;;;16.20;;
50605;SDS011;36557;53.572;10.170;2022-11-15T00:02:59;28.73;;;15.00;;
50605;SDS011;36557;53.572;10.170;2022-11-15T00:05:25;31.40;;;17.42;;
50605;SDS011;36557;53.572;10.170;2022-11-15T00:07:50;27.20;;;15.85;;
50605;SDS011;36557;53.572;10.170;2022-11-15T00:10:16;26.83;;;15.57;;
50605;SDS011;36557;53.572;10.170;2022-11-15T00:12:42;28.17;;;16.80;;
50605;SDS011;36557;53.572;10.170;2022-11-15T00:15:08;28.17;;;15.73;;
50605;SDS011;36557;53.572;10.170;2022-11-15T00:17:33;26.98;;;15.20;;
50605;SDS011;36557;53.572;10.170;2022-11-15T00:19:59;25.15;;;15.32;;
50605;SDS011;36557;53.572;10.170;2022-11-15T00:22:25;28.75;;;16.08;;
50605;SDS011;36557;53.572;10.170;2022-11-15T00:24:57;29.85;;;15.35;;
50605;SDS011;36557;53.572;10.170;2022-11-15T00:27:23;28.98;;;15.38;;
50605;SDS011;36557;53.572;10.170;2022-11-15T00:29:48;28.42;;;16.27;;
50605;SDS011;36557;53.572;10.170;2022-11-15T00:32:14;30.25;;;17.35;;
50605;SDS011;36557;53.572;10.170;2022-11-15T00:34:40;27.70;;;15.48;;
50605;SDS011;36557;53.572;10.170;2022-11-15T00:37:06;32.13;;;16.33;;
50605;SDS011;36557;53.572;10.170;2022-11-15T00:39:32;32.03;;;17.17;;
50605;SDS011;36557;53.572;10.170;2022-11-15T00:41:57;30.50;;;16.27;;
50605;SDS011;36557;53.572;10.170;2022-11-15T00:44:23;29.17;;;16.20;;
50605;SDS011;36557;53.572;10.170;2022-11-15T00:46:49;32.33;;;17.13;;
50605;SDS011;36557;53.572;10.170;2022-11-15T00:49:14;28.35;;;16.20;;
50605;SDS011;36557;53.572;10.170;2022-11-15T00:51:40;27.60;;;15.55;;
50605;SDS011;36557;53.572;10.170;2022-11-15T00:54:05;29.75;;;15.90;;
50605;SDS011;36557;53.572;10.170;2022-11-15T00:56:31;32.13;;;16.67;;
50605;SDS011;36557;53.572;10.170;2022-11-15T00:58:57;29.15;;;17.75;;
50605;SDS011;36557;53.572;10.170;2022-11-15T01:01:23;28.55;;;16.40;;
50605;SDS011;36557;53.572;10.170;2022-11-15T01:03:48;27.70;;;14.00;;
50605;SDS011;36557;53.572;10.170;2022-11-15T01:06:14;30.63;;;15.93;;
50605;SDS011;36557;53.572;10.170;2022-11-15T01:08:40;26.02;;;15.05;;
50605;SDS011;36557;53.572;10.170;2022-11-15T01:11:10;32.15;;;15.88;;
50605;SDS011;36557;53.572;10.170;2022-11-15T01:13:37;29.38;;;15.50;;
50605;SDS011;36557;53.572;10.170;2022-11-15T01:18:38;27.55;;;15.50;;
50605;SDS011;36557;53.572;10.170;2022-11-15T01:21:05;30.17;;;16.60;;
50605;SDS011;36557;53.572;10.170;2022-11-15T01:23:32;24.95;;;14.88;;
50605;SDS011;36557;53.572;10.170;2022-11-15T01:25:59;25.73;;;15.13;;
50605;SDS011;36557;53.572;10.170;2022-11-15T01:28:28;30.83;;;15.70;;
50605;SDS011;36557;53.572;10.170;2022-11-15T01:30:57;25.42;;;14.93;;
50605;SDS011;36557;53.572;10.170;2022-11-15T01:33:24;26.73;;;15.50;;
50605;SDS011;36557;53.572;10.170;2022-11-15T01:35:50;30.10;;;15.13;;
50605;SDS011;36557;53.572;10.170;2022-11-15T01:38:16;25.60;;;14.48;;
50605;SDS011;36557;53.572;10.170;2022-11-15T01:40:41;23.90;;;14.98;;
50605;SDS011;36557;53.572;10.170;2022-11-15T01:43:23;28.70;;;14.77;;
50605;SDS011;36557;53.572;10.170;2022-11-15T01:45:56;30.17;;;14.90;;
50605;SDS011;36557;53.572;10.170;2022-11-15T01:48:28;25.70;;;14.95;;
50605;SDS011;36557;53.572;10.170;2022-11-15T01:50:59;25.48;;;14.38;;
50605;SDS011;36557;53.572;10.170;2022-11-15T01:53:29;23.50;;;14.07;;
50605;SDS011;36557;53.572;10.170;2022-11-15T01:55:56;27.60;;;15.35;;
50605;SDS011;36557;53.572;10.170;2022-11-15T01:58:22;26.30;;;14.40;;
50605;SDS011;36557;53.572;10.170;2022-11-15T02:00:48;27.73;;;14.88;;
50605;SDS011;36557;53.572;10.170;2022-11-15T02:03:15;25.15;;;14.93;;
50605;SDS011;36557;53.572;10.170;2022-11-15T02:05:41;25.88;;;14.40;;
50605;SDS011;36557;53.572;10.170;2022-11-15T02:08:08;27.52;;;14.55;;
50605;SDS011;36557;53.572;10.170;2022-11-15T02:10:44;25.38;;;14.48;;
50605;SDS011;36557;53.572;10.170;2022-11-15T02:13:16;27.35;;;14.93;;
50605;SDS011;36557;53.572;10.170;2022-11-15T02:18:45;25.02;;;14.57;;
50605;SDS011;36557;53.572;10.170;2022-11-15T02:32:40;23.38;;;13.63;;
50605;SDS011;36557;53.572;10.170;2022-11-15T02:38:31;25.38;;;12.88;;
50605;SDS011;36557;53.572;10.170;2022-11-15T02:41:01;20.58;;;12.77;;
50605;SDS011;36557;53.572;10.170;2022-11-15T02:43:51;27.02;;;13.15;;
50605;SDS011;36557;53.572;10.170;2022-11-15T02:49:28;25.60;;;13.52;;
50605;SDS011;36557;53.572;10.170;2022-11-15T02:51:57;21.13;;;13.38;;
50605;SDS011;36557;53.572;10.170;2022-11-15T02:54:24;24.38;;;13.88;;
50605;SDS011;36557;53.572;10.170;2022-11-15T02:56:53;22.45;;;13.40;;
50605;SDS011;36557;53.572;10.170;2022-11-15T03:07:44;21.38;;;11.82;;
50605;SDS011;36557;53.572;10.170;2022-11-15T03:10:33;20.13;;;12.68;;
50605;SDS011;36557;53.572;10.170;2022-11-15T03:13:15;23.77;;;12.77;;
50605;SDS011;36557;53.572;10.170;2022-11-15T03:16:14;20.80;;;12.23;;
50605;SDS011;36557;53.572;10.170;2022-11-15T03:19:12;23.27;;;13.23;;
50605;SDS011;36557;53.572;10.170;2022-11-15T03:21:39;23.50;;;12.93;;
50605;SDS011;36557;53.572;10.170;2022-11-15T03:24:06;21.80;;;11.75;;
50605;SDS011;36557;53.572;10.170;2022-11-15T03:26:33;21.45;;;12.77;;
50605;SDS011;36557;53.572;10.170;2022-11-15T03:29:07;23.45;;;12.75;;
50605;SDS011;36557;53.572;10.170;2022-11-15T03:31:39;21.80;;;11.38;;
50605;SDS011;36557;53.572;10.170;2022-11-15T03:34:30;19.67;;;11.95;;
50605;SDS011;36557;53.572;10.170;2022-11-15T03:36:59;18.90;;;11.10;;
50605;SDS011;36557;53.572;10.170;2022-11-15T03:39:25;19.45;;;11.45;;
50605;SDS011;36557;53.572;10.170;2022-11-15T03:42:08;19.85;;;12.70;;
50605;SDS011;36557;53.572;10.170;2022-11-15T03:44:46;19.90;;;11.63;;
50605;SDS011;36557;53.572;10.170;2022-11-15T03:49:52;21.50;;;11.45;;
50605;SDS011;36557;53.572;10.170;2022-11-15T03:52:21;19.52;;;10.90;;
50605;SDS011;36557;53.572;10.170;2022-11-15T03:54:52;20.10;;;11.45;;
50605;SDS011;36557;53.572;10.170;2022-11-15T03:57:19;21.88;;;11.25;;
50605;SDS011;36557;53.572;10.170;2022-11-15T03:59:45;24.85;;;12.13;;
50605;SDS011;36557;53.572;10.170;2022-11-15T04:02:11;22.48;;;12.23;;
50605;SDS011;36557;53.572;10.170;2022-11-15T04:04:37;19.80;;;11.40;;
50605;SDS011;36557;53.572;10.170;2022-11-15T04:07:03;20.65;;;12.27;;
50605;SDS011;36557;53.572;10.170;2022-11-15T04:09:28;23.90;;;12.00;;
50605;SDS011;36557;53.572;10.170;2022-11-15T04:11:54;20.67;;;12.55;;
50605;SDS011;36557;53.572;10.170;2022-11-15T04:14:20;20.65;;;11.52;;
50605;SDS011;36557;53.572;10.170;2022-11-15T04:16:46;20.13;;;11.45;;
50605;SDS011;36557;53.572;10.170;2022-11-15T04:19:11;21.17;;;10.90;;
50605;SDS011;36557;53.572;10.170;2022-11-15T04:21:55;19.05;;;11.20;;
50605;SDS011;36557;53.572;10.170;2022-11-15T04:24:39;21.25;;;11.60;;
50605;SDS011;36557;53.572;10.170;2022-11-15T04:27:05;17.88;;;10.38;;
50605;SDS011;36557;53.572;10.170;2022-11-15T04:29:31;19.88;;;11.35;;
50605;SDS011;36557;53.572;10.170;2022-11-15T04:31:59;19.95;;;11.25;;
50605;SDS011;36557;53.572;10.170;2022-11-15T04:34:29;20.25;;;12.35;;
50605;SDS011;36557;53.572;10.170;2022-11-15T04:36:55;20.02;;;11.65;;
50605;SDS011;36557;53.572;10.170;2022-11-15T04:39:36;19.90;;;11.35;;
50605;SDS011;36557;53.572;10.170;2022-11-15T04:42:02;16.67;;;10.43;;
50605;SDS011;36557;53.572;10.170;2022-11-15T04:44:28;18.70;;;11.70;;
50605;SDS011;36557;53.572;10.170;2022-11-15T04:46:54;20.30;;;11.15;;
50605;SDS011;36557;53.572;10.170;2022-11-15T04:49:19;20.92;;;11.23;;
50605;SDS011;36557;53.572;10.170;2022-11-15T04:51:46;17.73;;;9.98;;
50605;SDS011;36557;53.572;10.170;2022-11-15T04:54:12;22.05;;;12.43;;
50605;SDS011;36557;53.572;10.170;2022-11-15T04:56:37;22.02;;;12.07;;
50605;SDS011;36557;53.572;10.170;2022-11-15T04:59:03;19.77;;;11.38;;
50605;SDS011;36557;53.572;10.170;2022-11-15T05:01:29;24.83;;;11.48;;
50605;SDS011;36557;53.572;10.170;2022-11-15T05:03:55;20.48;;;11.93;;
50605;SDS011;36557;53.572;10.170;2022-11-15T05:06:39;24.80;;;14.20;;
50605;SDS011;36557;53.572;10.170;2022-11-15T05:09:04;19.85;;;12.32;;
50605;SDS011;36557;53.572;10.170;2022-11-15T05:11:30;19.90;;;11.55;;
50605;SDS011;36557;53.572;10.170;2022-11-15T05:13:56;20.27;;;11.55;;
50605;SDS011;36557;53.572;10.170;2022-11-15T05:16:22;31.13;;;17.27;;
50605;SDS011;36557;53.572;10.170;2022-11-15T05:18:50;43.80;;;28.52;;
50605;SDS011;36557;53.572;10.170;2022-11-15T05:21:16;28.83;;;16.70;;
50605;SDS011;36557;53.572;10.170;2022-11-15T05:23:43;26.52;;;16.90;;
50605;SDS011;36557;53.572;10.170;2022-11-15T05:26:09;27.17;;;18.10;;
50605;SDS011;36557;53.572;10.170;2022-11-15T05:28:35;20.55;;;12.65;;
50605;SDS011;36557;53.572;10.170;2022-11-15T05:31:05;20.67;;;12.85;;
50605;SDS011;36557;53.572;10.170;2022-11-15T05:33:33;21.20;;;12.73;;
50605;SDS011;36557;53.572;10.170;2022-11-15T05:36:03;19.00;;;11.90;;
50605;SDS011;36557;53.572;10.170;2022-11-15T05:38:32;19.70;;;11.00;;
50605;SDS011;36557;53.572;10.170;2022-11-15T05:40:59;21.50;;;11.93;;
50605;SDS011;36557;53.572;10.170;2022-11-15T05:43:26;18.65;;;11.68;;
50605;SDS011;36557;53.572;10.170;2022-11-15T05:45:52;21.77;;;11.70;;
50605;SDS011;36557;53.572;10.170;2022-11-15T05:48:18;18.23;;;11.43;;
50605;SDS011;36557;53.572;10.170;2022-11-15T05:50:45;19.38;;;11.18;;
50605;SDS011;36557;53.572;10.170;2022-11-15T05:53:12;21.15;;;11.32;;
50605;SDS011;36557;53.572;10.170;2022-11-15T05:55:41;19.58;;;12.07;;
50605;SDS011;36557;53.572;10.170;2022-11-15T05:58:07;21.05;;;11.93;;
50605;SDS011;36557;53.572;10.170;2022-11-15T06:00:33;22.15;;;12.23;;
50605;SDS011;36557;53.572;10.170;2022-11-15T06:02:59;20.15;;;12.77;;
50605;SDS011;36557;53.572;10.170;2022-11-15T06:05:24;21.73;;;13.10;;
50605;SDS011;36557;53.572;10.170;2022-11-15T06:07:50;19.45;;;12.35;;
50605;SDS011;36557;53.572;10.170;2022-11-15T06:10:16;19.90;;;12.57;;
50605;SDS011;36557;53.572;10.170;2022-11-15T06:12:42;21.42;;;11.88;;
50605;SDS011;36557;53.572;10.170;2022-11-15T06:15:07;21.00;;;12.48;;
50605;SDS011;36557;53.572;10.170;2022-11-15T06:17:33;20.00;;;11.82;;
50605;SDS011;36557;53.572;10.170;2022-11-15T06:19:59;20.60;;;12.20;;
50605;SDS011;36557;53.572;10.170;2022-11-15T06:22:24;19.88;;;13.45;;
50605;SDS011;36557;53.572;10.170;2022-11-15T06:24:50;20.70;;;11.70;;
50605;SDS011;36557;53.572;10.170;2022-11-15T06:27:16;18.38;;;11.73;;
50605;SDS011;36557;53.572;10.170;2022-11-15T06:29:41;18.88;;;11.70;;
50605;SDS011;36557;53.572;10.170;2022-11-15T06:32:07;20.17;;;12.38;;
50605;SDS011;36557;53.572;10.170;2022-11-15T06:34:33;23.48;;;12.10;;
50605;SDS011;36557;53.572;10.170;2022-11-15T06:37:00;18.13;;;12.02;;
50605;SDS011;36557;53.572;10.170;2022-11-15T06:39:27;21.70;;;12.55;;
50605;SDS011;36557;53.572;10.170;2022-11-15T06:41:52;20.20;;;12.88;;
50605;SDS011;36557;53.572;10.170;2022-11-15T06:44:18;20.52;;;10.88;;
50605;SDS011;36557;53.572;10.170;2022-11-15T06:46:44;20.90;;;12.10;;
50605;SDS011;36557;53.572;10.170;2022-11-15T06:49:09;20.73;;;11.98;;
50605;SDS011;36557;53.572;10.170;2022-11-15T06:51:35;23.77;;;11.85;;
50605;SDS011;36557;53.572;10.170;2022-11-15T06:54:01;18.42;;;11.07;;
50605;SDS011;36557;53.572;10.170;2022-11-15T06:56:27;18.08;;;11.63;;
50605;SDS011;36557;53.572;10.170;2022-11-15T06:58:52;20.10;;;11.32;;
50605;SDS011;36557;53.572;10.170;2022-11-15T07:01:18;20.52;;;11.57;;
50605;SDS011;36557;53.572;10.170;2022-11-15T07:03:44;21.25;;;11.88;;
50605;SDS011;36557;53.572;10.170;2022-11-15T07:06:11;20.88;;;11.68;;
50605;SDS011;36557;53.572;10.170;2022-11-15T07:08:36;20.77;;;12.02;;
50605;SDS011;36557;53.572;10.170;2022-11-15T07:11:04;18.98;;;11.85;;
50605;SDS011;36557;53.572;10.170;2022-11-15T07:13:31;19.75;;;11.55;;
50605;SDS011;36557;53.572;10.170;2022-11-15T07:15:58;20.95;;;11.90;;
50605;SDS011;36557;53.572;10.170;2022-11-15T07:18:28;18.65;;;11.80;;
50605;SDS011;36557;53.572;10.170;2022-11-15T07:20:53;18.40;;;11.40;;
50605;SDS011;36557;53.572;10.170;2022-11-15T07:23:19;19.33;;;12.13;;
50605;SDS011;36557;53.572;10.170;2022-11-15T07:25:45;20.75;;;11.23;;
50605;SDS011;36557;53.572;10.170;2022-11-15T07:28:10;20.50;;;11.95;;
50605;SDS011;36557;53.572;10.170;2022-11-15T07:30:36;17.30;;;11.85;;
50605;SDS011;36557;53.572;10.170;2022-11-15T07:33:02;16.80;;;11.00;;
50605;SDS011;36557;53.572;10.170;2022-11-15T07:35:28;20.52;;;11.68;;
50605;SDS011;36557;53.572;10.170;2022-11-15T07:37:57;20.80;;;11.95;;
50605;SDS011;36557;53.572;10.170;2022-11-15T07:40:25;19.33;;;10.70;;
50605;SDS011;36557;53.572;10.170;2022-11-15T07:42:52;24.30;;;11.52;;
50605;SDS011;36557;53.572;10.170;2022-11-15T07:45:18;21.23;;;11.75;;
50605;SDS011;36557;53.572;10.170;2022-11-15T07:47:47;21.35;;;12.18;;
50605;SDS011;36557;53.572;10.170;2022-11-15T07:50:13;18.60;;;11.30;;
50605;SDS011;36557;53.572;10.170;2022-11-15T07:52:39;20.80;;;11.05;;
50605;SDS011;36557;53.572;10.170;2022-11-15T07:55:05;19.02;;;12.48;;
50605;SDS011;36557;53.572;10.170;2022-11-15T07:57:31;20.08;;;11.75;;
50605;SDS011;36557;53.572;10.170;2022-11-15T07:59:57;17.85;;;11.93;;
50605;SDS011;36557;53.572;10.170;2022-11-15T08:02:22;19.65;;;10.90;;
50605;SDS011;36557;53.572;10.170;2022-11-15T08:04:48;22.50;;;11.88;;
50605;SDS011;36557;53.572;10.170;2022-11-15T08:07:14;19.70;;;11.63;;
50605;SDS011;36557;53.572;10.170;2022-11-15T08:09:40;19.27;;;11.25;;
50605;SDS011;36557;53.572;10.170;2022-11-15T08:12:05;18.92;;;11.57;;
50605;SDS011;36557;53.572;10.170;2022-11-15T08:14:31;20.15;;;11.63;;
50605;SDS011;36557;53.572;10.170;2022-11-15T08:16:57;18.27;;;12.23;;
50605;SDS011;36557;53.572;10.170;2022-11-15T08:19:23;17.17;;;10.20;;
50605;SDS011;36557;53.572;10.170;2022-11-15T08:21:49;22.20;;;11.40;;
50605;SDS011;36557;53.572;10.170;2022-11-15T08:24:15;18.92;;;11.27;;
50605;SDS011;36557;53.572;10.170;2022-11-15T08:26:40;19.35;;;10.57;;
50605;SDS011;36557;53.572;10.170;2022-11-15T08:29:06;19.15;;;10.70;;
50605;SDS011;36557;53.572;10.170;2022-11-15T08:31:35;17.60;;;11.05;;
50605;SDS011;36557;53.572;10.170;2022-11-15T08:34:05;19.23;;;12.23;;
50605;SDS011;36557;53.572;10.170;2022-11-15T08:36:31;21.27;;;11.60;;
50605;SDS011;36557;53.572;10.170;2022-11-15T08:38:57;25.38;;;13.52;;
50605;SDS011;36557;53.572;10.170;2022-11-15T08:41:35;25.15;;;13.50;;
50605;SDS011;36557;53.572;10.170;2022-11-15T08:44:02;22.20;;;12.80;;
50605;SDS011;36557;53.572;10.170;2022-11-15T08:46:28;19.95;;;10.80;;
50605;SDS011;36557;53.572;10.170;2022-11-15T08:48:53;18.27;;;10.85;;
50605;SDS011;36557;53.572;10.170;2022-11-15T08:51:19;20.35;;;11.80;;
50605;SDS011;36557;53.572;10.170;2022-11-15T08:53:45;24.17;;;11.82;;
50605;SDS011;36557;53.572;10.170;2022-11-15T08:56:11;20.88;;;11.68;;
50605;SDS011;36557;53.572;10.170;2022-11-15T08:58:39;19.38;;;11.68;;
50605;SDS011;36557;53.572;10.170;2022-11-15T09:01:05;19.52;;;11.57;;
50605;SDS011;36557;53.572;10.170;2022-11-15T09:03:31;17.50;;;11.52;;
50605;SDS011;36557;53.572;10.170;2022-11-15T09:05:57;21.58;;;12.23;;
50605;SDS011;36557;53.572;10.170;2022-11-15T09:08:24;16.17;;;10.32;;
50605;SDS011;36557;53.572;10.170;2022-11-15T09:10:51;17.58;;;10.90;;
50605;SDS011;36557;53.572;10.170;2022-11-15T09:13:17;19.05;;;11.48;;
50605;SDS011;36557;53.572;10.170;2022-11-15T09:15:43;22.02;;;11.55;;
50605;SDS011;36557;53.572;10.170;2022-11-15T09:18:08;18.00;;;10.82;;
50605;SDS011;36557;53.572;10.170;2022-11-15T09:20:34;19.17;;;10.63;;
50605;SDS011;36557;53.572;10.170;2022-11-15T09:23:00;21.45;;;11.48;;
50605;SDS011;36557;53.572;10.170;2022-11-15T09:25:26;19.13;;;11.60;;
50605;SDS011;36557;53.572;10.170;2022-11-15T09:27:53;19.55;;;10.63;;
50605;SDS011;36557;53.572;10.170;2022-11-15T09:30:19;21.00;;;12.80;;
50605;SDS011;36557;53.572;10.170;2022-11-15T09:32:45;21.83;;;12.50;;
50605;SDS011;36557;53.572;10.170;2022-11-15T09:35:11;23.17;;;12.73;;
50605;SDS011;36557;53.572;10.170;2022-11-15T09:37:36;22.00;;;12.65;;
50605;SDS011;36557;53.572;10.170;2022-11-15T09:40:03;25.17;;;15.20;;
50605;SDS011;36557;53.572;10.170;2022-11-15T09:53:22;20.30;;;11.32;;
50605;SDS011;36557;53.572;10.170;2022-11-15T09:56:05;21.48;;;11.02;;
50605;SDS011;36557;53.572;10.170;2022-11-15T10:01:49;24.52;;;14.10;;
50605;SDS011;36557;53.572;10.170;2022-11-15T10:04:33;22.50;;;12.65;;
50605;SDS011;36557;53.572;10.170;2022-11-15T10:09:31;19.33;;;12.57;;
50605;SDS011;36557;53.572;10.170;2022-11-15T10:12:06;15.73;;;10.15;;
50605;SDS011;36557;53.572;10.170;2022-11-15T10:14:34;13.50;;;9.48;;
50605;SDS011;36557;53.572;10.170;2022-11-15T10:17:09;15.95;;;9.43;;
50605;SDS011;36557;53.572;10.170;2022-11-15T10:19:53;14.70;;;9.43;;
50605;SDS011;36557;53.572;10.170;2022-11-15T10:25:01;13.25;;;8.80;;
50605;SDS011;36557;53.572;10.170;2022-11-15T10:27:36;16.75;;;9.50;;
50605;SDS011;36557;53.572;10.170;2022-11-15T10:30:02;13.63;;;9.05;;
50605;SDS011;36557;53.572;10.170;2022-11-15T10:32:35;14.60;;;8.90;;
50605;SDS011;36557;53.572;10.170;2022-11-15T10:35:09;13.80;;;9.20;;
50605;SDS011;36557;53.572;10.170;2022-11-15T10:37:42;13.82;;;9.90;;
50605;SDS011;36557;53.572;10.170;2022-11-15T10:40:16;15.88;;;9.07;;
50605;SDS011;36557;53.572;10.170;2022-11-15T10:42:47;16.13;;;10.43;;
50605;SDS011;36557;53.572;10.170;2022-11-15T10:45:24;17.95;;;11.30;;
50605;SDS011;36557;53.572;10.170;2022-11-15T10:48:18;15.50;;;10.18;;
50605;SDS011;36557;53.572;10.170;2022-11-15T10:50:46;18.02;;;9.73;;
50605;SDS011;36557;53.572;10.170;2022-11-15T10:53:46;11.85;;;8.70;;
50605;SDS011;36557;53.572;10.170;2022-11-15T10:56:11;14.00;;;9.00;;
50605;SDS011;36557;53.572;10.170;2022-11-15T10:58:43;14.57;;;9.43;;
50605;SDS011;36557;53.572;10.170;2022-11-15T11:01:25;22.83;;;11.90;;
50605;SDS011;36557;53.572;10.170;2022-11-15T11:06:25;25.42;;;14.93;;
50605;SDS011;36557;53.572;10.170;2022-11-15T11:11:21;30.63;;;17.25;;
50605;SDS011;36557;53.572;10.170;2022-11-15T11:13:47;22.02;;;12.68;;
50605;SDS011;36557;53.572;10.170;2022-11-15T11:21:32;12.80;;;8.27;;
50605;SDS011;36557;53.572;10.170;2022-11-15T11:27:34;12.75;;;8.02;;
50605;SDS011;36557;53.572;10.170;2022-11-15T11:30:03;11.93;;;8.10;;
50605;SDS011;36557;53.572;10.170;2022-11-15T11:38:15;14.52;;;8.05;;
50605;SDS011;36557;53.572;10.170;2022-11-15T11:40:50;14.18;;;8.00;;
50605;SDS011;36557;53.572;10.170;2022-11-15T11:46:49;12.35;;;7.68;;
50605;SDS011;36557;53.572;10.170;2022-11-15T11:52:31;14.18;;;7.75;;
50605;SDS011;36557;53.572;10.170;2022-11-15T11:55:20;12.05;;;7.25;;
50605;SDS011;36557;53.572;10.170;2022-11-15T12:00:28;12.40;;;7.80;;
50605;SDS011;36557;53.572;10.170;2022-11-15T12:03:12;13.23;;;7.85;;
50605;SDS011;36557;53.572;10.170;2022-11-15T12:05:50;14.75;;;9.18;;
50605;SDS011;36557;53.572;10.170;2022-11-15T12:11:13;12.35;;;8.35;;
50605;SDS011;36557;53.572;10.170;2022-11-15T12:13:48;13.45;;;8.80;;
50605;SDS011;36557;53.572;10.170;2022-11-15T12:16:31;12.82;;;7.72;;
50605;SDS011;36557;53.572;10.170;2022-11-15T12:19:02;12.10;;;7.63;;
50605;SDS011;36557;53.572;10.170;2022-11-15T12:30:08;11.13;;;7.75;;
50605;SDS011;36557;53.572;10.170;2022-11-15T12:32:38;11.73;;;7.35;;
50605;SDS011;36557;53.572;10.170;2022-11-15T12:35:06;13.13;;;8.27;;
50605;SDS011;36557;53.572;10.170;2022-11-15T12:37:49;11.45;;;7.28;;
50605;SDS011;36557;53.572;10.170;2022-11-15T12:40:17;12.80;;;8.07;;
50605;SDS011;36557;53.572;10.170;2022-11-15T12:42:57;10.98;;;7.22;;
50605;SDS011;36557;53.572;10.170;2022-11-15T12:58:44;11.50;;;6.53;;
50605;SDS011;36557;53.572;10.170;2022-11-15T13:04:13;9.40;;;6.28;;
50605;SDS011;36557;53.572;10.170;2022-11-15T13:07:05;11.02;;;7.13;;
50605;SDS011;36557;53.572;10.170;2022-11-15T13:12:01;10.85;;;6.53;;
50605;SDS011;36557;53.572;10.170;2022-11-15T13:22:45;10.15;;;6.15;;
50605;SDS011;36557;53.572;10.170;2022-11-15T13:25:37;12.30;;;7.05;;
50605;SDS011;36557;53.572;10.170;2022-11-15T13:33:30;9.70;;;6.28;;
50605;SDS011;36557;53.572;10.170;2022-11-15T13:36:06;11.25;;;6.22;;
50605;SDS011;36557;53.572;10.170;2022-11-15T13:38:38;10.27;;;6.78;;
50605;SDS011;36557;53.572;10.170;2022-11-15T13:41:20;11.80;;;5.93;;
50605;SDS011;36557;53.572;10.170;2022-11-15T13:43:49;9.25;;;6.63;;
50605;SDS011;36557;53.572;10.170;2022-11-15T13:46:17;12.00;;;6.05;;
50605;SDS011;36557;53.572;10.170;2022-11-15T13:48:51;11.20;;;6.53;;
50605;SDS011;36557;53.572;10.170;2022-11-15T13:51:39;8.65;;;6.15;;
50605;SDS011;36557;53.572;10.170;2022-11-15T13:54:29;11.20;;;6.53;;
50605;SDS011;36557;53.572;10.170;2022-11-15T13:57:26;10.65;;;6.60;;
50605;SDS011;36557;53.572;10.170;2022-11-15T13:59:53;7.00;;;5.72;;
50605;SDS011;36557;53.572;10.170;2022-11-15T14:02:31;10.27;;;6.63;;
50605;SDS011;36557;53.572;10.170;2022-11-15T14:05:11;10.30;;;6.07;;
50605;SDS011;36557;53.572;10.170;2022-11-15T14:07:52;10.32;;;6.30;;
50605;SDS011;36557;53.572;10.170;2022-11-15T14:10:32;9.70;;;5.60;;
50605;SDS011;36557;53.572;10.170;2022-11-15T14:13:01;13.13;;;6.50;;
50605;SDS011;36557;53.572;10.170;2022-11-15T14:15:30;12.15;;;5.97;;
50605;SDS011;36557;53.572;10.170;2022-11-15T14:17:58;12.73;;;6.82;;
50605;SDS011;36557;53.572;10.170;2022-11-15T14:23:00;10.48;;;6.15;;
50605;SDS011;36557;53.572;10.170;2022-11-15T14:25:31;11.70;;;5.70;;
50605;SDS011;36557;53.572;10.170;2022-11-15T14:28:12;10.07;;;6.32;;
50605;SDS011;36557;53.572;10.170;2022-11-15T14:30:38;10.15;;;6.60;;
50605;SDS011;36557;53.572;10.170;2022-11-15T14:38:39;7.30;;;5.13;;
50605;SDS011;36557;53.572;10.170;2022-11-15T14:41:05;9.88;;;6.57;;
50605;SDS011;36557;53.572;10.170;2022-11-15T14:43:35;9.73;;;5.82;;
50605;SDS011;36557;53.572;10.170;2022-11-15T14:46:01;8.73;;;5.50;;
50605;SDS011;36557;53.572;10.170;2022-11-15T14:48:26;10.98;;;5.53;;
50605;SDS011;36557;53.572;10.170;2022-11-15T14:50:53;9.10;;;6.07;;
50605;SDS011;36557;53.572;10.170;2022-11-15T14:53:19;10.13;;;5.63;;
50605;SDS011;36557;53.572;10.170;2022-11-15T14:55:45;9.55;;;5.53;;
50605;SDS011;36557;53.572;10.170;2022-11-15T14:58:11;9.05;;;5.63;;
50605;SDS011;36557;53.572;10.170;2022-11-15T15:00:37;10.30;;;6.30;;
50605;SDS011;36557;53.572;10.170;2022-11-15T15:03:05;14.55;;;9.27;;
50605;SDS011;36557;53.572;10.170;2022-11-15T15:05:36;9.93;;;5.82;;
50605;SDS011;36557;53.572;10.170;2022-11-15T15:08:06;9.10;;;5.93;;
50605;SDS011;36557;53.572;10.170;2022-11-15T15:10:33;10.10;;;5.97;;
50605;SDS011;36557;53.572;10.170;2022-11-15T15:13:02;10.48;;;6.07;;
50605;SDS011;36557;53.572;10.170;2022-11-15T15:15:32;10.43;;;5.97;;
50605;SDS011;36557;53.572;10.170;2022-11-15T15:18:00;8.90;;;5.65;;
50605;SDS011;36557;53.572;10.170;2022-11-15T15:20:26;9.10;;;5.63;;
50605;SDS011;36557;53.572;10.170;2022-11-15T15:22:52;10.30;;;5.55;;
50605;SDS011;36557;53.572;10.170;2022-11-15T15:27:54;9.40;;;5.70;;
50605;SDS011;36557;53.572;10.170;2022-11-15T15:30:21;11.48;;;5.45;;
50605;SDS011;36557;53.572;10.170;2022-11-15T15:32:48;10.57;;;5.78;;
50605;SDS011;36557;53.572;10.170;2022-11-15T15:35:14;13.13;;;6.38;;
50605;SDS011;36557;53.572;10.170;2022-11-15T15:37:41;10.93;;;5.88;;
50605;SDS011;36557;53.572;10.170;2022-11-15T15:40:13;9.02;;;5.97;;
50605;SDS011;36557;53.572;10.170;2022-11-15T15:42:44;9.98;;;5.18;;
50605;SDS011;36557;53.572;10.170;2022-11-15T15:45:11;9.90;;;5.85;;
50605;SDS011;36557;53.572;10.170;2022-11-15T15:47:37;10.82;;;5.95;;
50605;SDS011;36557;53.572;10.170;2022-11-15T15:50:03;13.40;;;6.70;;
50605;SDS011;36557;53.572;10.170;2022-11-15T15:52:41;8.90;;;6.05;;
50605;SDS011;36557;53.572;10.170;2022-11-15T15:55:07;11.50;;;6.20;;
50605;SDS011;36557;53.572;10.170;2022-11-15T15:57:33;10.23;;;6.13;;
50605;SDS011;36557;53.572;10.170;2022-11-15T15:59:59;10.02;;;6.25;;
50605;SDS011;36557;53.572;10.170;2022-11-15T16:02:25;9.00;;;5.95;;
50605;SDS011;36557;53.572;10.170;2022-11-15T16:04:50;9.93;;;6.07;;
50605;SDS011;36557;53.572;10.170;2022-11-15T16:07:21;12.70;;;8.63;;
50605;SDS011;36557;53.572;10.170;2022-11-15T16:09:48;14.02;;;7.88;;
50605;SDS011;36557;53.572;10.170;2022-11-15T16:12:31;11.05;;;6.53;;
50605;SDS011;36557;53.572;10.170;2022-11-15T16:14:58;11.25;;;7.07;;
50605;SDS011;36557;53.572;10.170;2022-11-15T16:17:26;9.90;;;6.00;;
50605;SDS011;36557;53.572;10.170;2022-11-15T16:19:56;9.13;;;6.15;;
50605;SDS011;36557;53.572;10.170;2022-11-15T16:22:21;8.75;;;6.53;;
50605;SDS011;36557;53.572;10.170;2022-11-15T16:24:47;10.98;;;6.28;;
50605;SDS011;36557;53.572;10.170;2022-11-15T16:27:17;10.20;;;6.22;;
50605;SDS011;36557;53.572;10.170;2022-11-15T16:29:44;13.52;;;8.15;;
50605;SDS011;36557;53.572;10.170;2022-11-15T16:32:10;12.07;;;7.88;;
50605;SDS011;36557;53.572;10.170;2022-11-15T16:34:36;10.68;;;8.45;;
50605;SDS011;36557;53.572;10.170;2022-11-15T16:37:02;14.00;;;8.25;;
50605;SDS011;36557;53.572;10.170;2022-11-15T16:39:28;9.60;;;6.63;;
50605;SDS011;36557;53.572;10.170;2022-11-15T16:41:57;9.13;;;6.40;;